PWSweather.com
Personal Weather Stations
Station Observations
SELSTON
Bracken House, Selston NottinghamGB NG16 6AN

Bracken HouseSelston NottinghamGB NG16 6AN

Lat: 53.070642, Lon: -1.2933

Elevation: 426

Station Type: Davis Vantage Pro 2

http://www.selstonweather.info

Latest ConditionsUpdated 4:34:17 AM GMT Saturday, Jan 18, 2020
Currently Today's Max Today's Min Today's Average
Temperature 34.8°F1.6°C 36.3°F2.4°C 33.5°F0.8°C 35.1°F1.7°C
Dew Point 32.7°F0.4°C 34.2°F1.2°C 31.4°F-0.3°C 33.1°F0.6°C
Winds 2.0 mph NW3.2 kmh NW 8.0 mph -12.9 kmh - - 2.7 mph 4.3 kmh
Wind Gusts 6.0 mph9.7 kmh 13.0 mph20.9 kmh - -
Humidity 92% 93% 92% 92%
Pressure 30.12 in1020.0 mb 30.12 in1020.0 mb 30.04 in1017.3 mb -
Hour Temp Dew Point Humidity Winds Wind Gusts Pressure Precip Precip Rate Daily Precip Total
04:34 AM 34.8°F1.6°C 32.7°F0.4°C 92% 2.0 mph NW3.2 kmh NW 6.0 mph9.7 kmh 30.12 in1020.0 mb 0.00 in0.0 mm 0.00 in0.0 mm 0.00 in0.0 mm
04:29 AM 34.8°F1.6°C 32.7°F0.4°C 92% 5.0 mph NW8.0 kmh NW 6.0 mph9.7 kmh 30.12 in1020.0 mb 0.00 in0.0 mm 0.00 in0.0 mm 0.00 in0.0 mm
04:24 AM 34.7°F1.5°C 32.6°F0.3°C 92% 4.0 mph NW6.4 kmh NW 6.0 mph9.7 kmh 30.12 in1020.0 mb 0.00 in0.0 mm 0.00 in0.0 mm 0.00 in0.0 mm
04:19 AM 34.8°F1.6°C 32.7°F0.4°C 92% 2.0 mph NW3.2 kmh NW 6.0 mph9.7 kmh 30.12 in1020.0 mb 0.00 in0.0 mm 0.00 in0.0 mm 0.00 in0.0 mm
04:14 AM 34.9°F1.6°C 32.8°F0.4°C 92% 2.0 mph NW3.2 kmh NW 4.0 mph6.4 kmh 30.12 in1020.0 mb 0.00 in0.0 mm 0.00 in0.0 mm 0.00 in0.0 mm
04:09 AM 34.9°F1.6°C 32.8°F0.4°C 92% 2.0 mph NW3.2 kmh NW 4.0 mph6.4 kmh 30.12 in1020.0 mb 0.00 in0.0 mm 0.00 in0.0 mm 0.00 in0.0 mm
04:04 AM 34.9°F1.6°C 32.8°F0.4°C 92% 1.0 mph NW1.6 kmh NW 4.0 mph6.4 kmh 30.12 in1020.0 mb 0.00 in0.0 mm 0.00 in0.0 mm 0.00 in0.0 mm
03:59 AM 34.9°F1.6°C 33.1°F0.6°C 93% 2.0 mph NW3.2 kmh NW 3.0 mph4.8 kmh 30.12 in1020.0 mb 0.00 in0.0 mm 0.00 in0.0 mm 0.00 in0.0 mm
03:54 AM 34.8°F1.6°C 33.0°F0.6°C 93% 1.0 mph NW1.6 kmh NW 5.0 mph8.0 kmh 30.12 in1020.0 mb 0.00 in0.0 mm 0.00 in0.0 mm 0.00 in0.0 mm
03:49 AM 34.8°F1.6°C 33.0°F0.6°C 93% 1.0 mph NW1.6 kmh NW 5.0 mph8.0 kmh 30.12 in1020.0 mb 0.00 in0.0 mm 0.00 in0.0 mm 0.00 in0.0 mm
03:44 AM 34.7°F1.5°C 32.9°F0.5°C 93% 1.0 mph NW1.6 kmh NW 7.0 mph11.3 kmh 30.12 in1020.0 mb 0.00 in0.0 mm 0.00 in0.0 mm 0.00 in0.0 mm
03:39 AM 34.5°F1.4°C 32.7°F0.4°C 93% 1.0 mph NW1.6 kmh NW 7.0 mph11.3 kmh 30.12 in1020.0 mb 0.00 in0.0 mm 0.00 in0.0 mm 0.00 in0.0 mm
03:34 AM 34.3°F1.3°C 32.5°F0.3°C 93% 2.0 mph NW3.2 kmh NW 7.0 mph11.3 kmh 30.12 in1020.0 mb 0.00 in0.0 mm 0.00 in0.0 mm 0.00 in0.0 mm
03:29 AM 33.8°F1.0°C 32.0°F0.0°C 93% 5.0 mph NW8.0 kmh NW 7.0 mph11.3 kmh 30.11 in1019.6 mb 0.00 in0.0 mm 0.00 in0.0 mm 0.00 in0.0 mm
03:24 AM 33.5°F0.8°C 31.4°F-0.3°C 92% 3.0 mph WNW4.8 kmh WNW 3.0 mph4.8 kmh 30.11 in1019.6 mb 0.00 in0.0 mm 0.00 in0.0 mm 0.00 in0.0 mm
03:19 AM 33.5°F0.8°C 31.4°F-0.3°C 92% Calm Calm 1.0 mph1.6 kmh 30.11 in1019.6 mb 0.00 in0.0 mm 0.00 in0.0 mm 0.00 in0.0 mm
03:14 AM 33.7°F0.9°C 31.6°F-0.2°C 92% Calm Calm -- 30.11 in1019.6 mb 0.00 in0.0 mm 0.00 in0.0 mm 0.00 in0.0 mm
03:09 AM 33.8°F1.0°C 31.7°F-0.2°C 92% Calm Calm -- 30.11 in1019.6 mb 0.00 in0.0 mm 0.00 in0.0 mm 0.00 in0.0 mm
03:04 AM 34.0°F1.1°C 31.9°F-0.1°C 92% Calm Calm -- 30.11 in1019.6 mb 0.00 in0.0 mm 0.00 in0.0 mm 0.00 in0.0 mm
02:59 AM 34.2°F1.2°C 32.1°F0.1°C 92% Calm Calm 1.0 mph1.6 kmh 30.11 in1019.6 mb 0.00 in0.0 mm 0.00 in0.0 mm 0.00 in0.0 mm
02:54 AM 34.5°F1.4°C 32.4°F0.2°C 92% Calm Calm 4.0 mph6.4 kmh 30.11 in1019.6 mb 0.00 in0.0 mm 0.00 in0.0 mm 0.00 in0.0 mm
02:49 AM 34.7°F1.5°C 32.6°F0.3°C 92% 1.0 mph WNW1.6 kmh WNW 4.0 mph6.4 kmh 30.10 in1019.3 mb 0.00 in0.0 mm 0.00 in0.0 mm 0.00 in0.0 mm
02:44 AM 34.9°F1.6°C 32.8°F0.4°C 92% Calm Calm 5.0 mph8.0 kmh 30.10 in1019.3 mb 0.00 in0.0 mm 0.00 in0.0 mm 0.00 in0.0 mm
02:39 AM 35.1°F1.7°C 33.0°F0.6°C 92% 1.0 mph WNW1.6 kmh WNW 5.0 mph8.0 kmh 30.10 in1019.3 mb 0.00 in0.0 mm 0.00 in0.0 mm 0.00 in0.0 mm
02:34 AM 35.2°F1.8°C 33.1°F0.6°C 92% 2.0 mph WNW3.2 kmh WNW 7.0 mph11.3 kmh 30.10 in1019.3 mb 0.00 in0.0 mm 0.00 in0.0 mm 0.00 in0.0 mm
02:29 AM 35.3°F1.8°C 33.2°F0.7°C 92% 4.0 mph WNW6.4 kmh WNW 7.0 mph11.3 kmh 30.10 in1019.3 mb 0.00 in0.0 mm 0.00 in0.0 mm 0.00 in0.0 mm
02:24 AM 35.4°F1.9°C 33.3°F0.7°C 92% 3.0 mph WNW4.8 kmh WNW 8.0 mph12.9 kmh 30.10 in1019.3 mb 0.00 in0.0 mm 0.00 in0.0 mm 0.00 in0.0 mm
02:19 AM 35.5°F1.9°C 33.4°F0.8°C 92% 4.0 mph W6.4 kmh W 8.0 mph12.9 kmh 30.10 in1019.3 mb 0.00 in0.0 mm 0.00 in0.0 mm 0.00 in0.0 mm
02:14 AM 35.5°F1.9°C 33.7°F0.9°C 93% 3.0 mph W4.8 kmh W 8.0 mph12.9 kmh 30.09 in1019.0 mb 0.00 in0.0 mm 0.00 in0.0 mm 0.00 in0.0 mm
02:09 AM 35.3°F1.8°C 33.2°F0.7°C 92% 5.0 mph W8.0 kmh W 8.0 mph12.9 kmh 30.09 in1019.0 mb 0.00 in0.0 mm 0.00 in0.0 mm 0.00 in0.0 mm
02:04 AM 35.3°F1.8°C 33.5°F0.8°C 93% Calm Calm 7.0 mph11.3 kmh 30.09 in1019.0 mb 0.00 in0.0 mm 0.00 in0.0 mm 0.00 in0.0 mm
01:59 AM 35.3°F1.8°C 33.5°F0.8°C 93% 5.0 mph W8.0 kmh W 7.0 mph11.3 kmh 30.09 in1019.0 mb 0.00 in0.0 mm 0.00 in0.0 mm 0.00 in0.0 mm
01:54 AM 35.3°F1.8°C 33.5°F0.8°C 93% 3.0 mph W4.8 kmh W 6.0 mph9.7 kmh 30.08 in1018.6 mb 0.00 in0.0 mm 0.00 in0.0 mm 0.00 in0.0 mm
01:49 AM 35.1°F1.7°C 33.3°F0.7°C 93% 4.0 mph W6.4 kmh W 6.0 mph9.7 kmh 30.08 in1018.6 mb 0.00 in0.0 mm 0.00 in0.0 mm 0.00 in0.0 mm
01:44 AM 35.0°F1.7°C 32.9°F0.5°C 92% 3.0 mph W4.8 kmh W 5.0 mph8.0 kmh 30.08 in1018.6 mb 0.00 in0.0 mm 0.00 in0.0 mm 0.00 in0.0 mm
01:39 AM 35.1°F1.7°C 33.0°F0.6°C 92% Calm Calm 5.0 mph8.0 kmh 30.07 in1018.3 mb 0.00 in0.0 mm 0.00 in0.0 mm 0.00 in0.0 mm
01:34 AM 35.2°F1.8°C 33.1°F0.6°C 92% 2.0 mph WSW3.2 kmh WSW 5.0 mph8.0 kmh 30.07 in1018.3 mb 0.00 in0.0 mm 0.00 in0.0 mm 0.00 in0.0 mm
01:29 AM 35.3°F1.8°C 33.2°F0.7°C 92% 2.0 mph WSW3.2 kmh WSW 5.0 mph8.0 kmh 30.07 in1018.3 mb 0.00 in0.0 mm 0.00 in0.0 mm 0.00 in0.0 mm
01:24 AM 35.5°F1.9°C 33.4°F0.8°C 92% 3.0 mph WSW4.8 kmh WSW 5.0 mph8.0 kmh 30.07 in1018.3 mb 0.00 in0.0 mm 0.00 in0.0 mm 0.00 in0.0 mm
01:19 AM 35.6°F2.0°C 33.5°F0.8°C 92% 1.0 mph WSW1.6 kmh WSW 5.0 mph8.0 kmh 30.07 in1018.3 mb 0.00 in0.0 mm 0.00 in0.0 mm 0.00 in0.0 mm
01:14 AM 35.7°F2.1°C 33.6°F0.9°C 92% 3.0 mph WSW4.8 kmh WSW 6.0 mph9.7 kmh 30.07 in1018.3 mb 0.00 in0.0 mm 0.00 in0.0 mm 0.00 in0.0 mm
01:09 AM 35.7°F2.1°C 33.6°F0.9°C 92% 3.0 mph WSW4.8 kmh WSW 6.0 mph9.7 kmh 30.07 in1018.3 mb 0.00 in0.0 mm 0.00 in0.0 mm 0.00 in0.0 mm
01:04 AM 35.9°F2.2°C 33.8°F1.0°C 92% 3.0 mph WSW4.8 kmh WSW 6.0 mph9.7 kmh 30.06 in1017.9 mb 0.00 in0.0 mm 0.00 in0.0 mm 0.00 in0.0 mm
12:59 AM 35.9°F2.2°C 33.8°F1.0°C 92% 5.0 mph WSW8.0 kmh WSW 6.0 mph9.7 kmh 30.06 in1017.9 mb 0.00 in0.0 mm 0.00 in0.0 mm 0.00 in0.0 mm
12:54 AM 36.0°F2.2°C 33.9°F1.1°C 92% 3.0 mph WSW4.8 kmh WSW 9.0 mph14.5 kmh 30.06 in1017.9 mb 0.00 in0.0 mm 0.00 in0.0 mm 0.00 in0.0 mm
12:49 AM 36.1°F2.3°C 34.0°F1.1°C 92% 6.0 mph WSW9.7 kmh WSW 9.0 mph14.5 kmh 30.06 in1017.9 mb 0.00 in0.0 mm 0.00 in0.0 mm 0.00 in0.0 mm
12:44 AM 36.2°F2.3°C 34.1°F1.2°C 92% 6.0 mph W9.7 kmh W 13.0 mph20.9 kmh 30.06 in1017.9 mb 0.00 in0.0 mm 0.00 in0.0 mm 0.00 in0.0 mm
12:39 AM 36.3°F2.4°C 34.2°F1.2°C 92% 3.0 mph W4.8 kmh W 13.0 mph20.9 kmh 30.05 in1017.6 mb 0.00 in0.0 mm 0.00 in0.0 mm 0.00 in0.0 mm
12:34 AM 36.3°F2.4°C 34.2°F1.2°C 92% 5.0 mph W8.0 kmh W 13.0 mph20.9 kmh 30.05 in1017.6 mb 0.00 in0.0 mm 0.00 in0.0 mm 0.00 in0.0 mm
12:29 AM 36.3°F2.4°C 34.2°F1.2°C 92% 8.0 mph WSW12.9 kmh WSW 13.0 mph20.9 kmh 30.05 in1017.6 mb 0.00 in0.0 mm 0.00 in0.0 mm 0.00 in0.0 mm
12:24 AM 36.1°F2.3°C 34.0°F1.1°C 92% 4.0 mph W6.4 kmh W 11.0 mph17.7 kmh 30.05 in1017.6 mb 0.00 in0.0 mm 0.00 in0.0 mm 0.00 in0.0 mm
12:19 AM 35.9°F2.2°C 33.8°F1.0°C 92% 7.0 mph NW11.3 kmh NW 9.0 mph14.5 kmh 30.04 in1017.3 mb 0.00 in0.0 mm 0.00 in0.0 mm 0.00 in0.0 mm
12:14 AM 35.7°F2.1°C 33.6°F0.9°C 92% 5.0 mph W8.0 kmh W 8.0 mph12.9 kmh 30.04 in1017.3 mb 0.00 in0.0 mm 0.00 in0.0 mm 0.00 in0.0 mm
12:09 AM 35.6°F2.0°C 33.5°F0.8°C 92% 6.0 mph W9.7 kmh W 8.0 mph12.9 kmh 30.04 in1017.3 mb 0.00 in0.0 mm 0.00 in0.0 mm 0.00 in0.0 mm
12:04 AM 35.7°F2.1°C 33.6°F0.9°C 92% Calm Calm 3.0 mph4.8 kmh 30.04 in1017.3 mb 0.00 in0.0 mm 0.00 in0.0 mm 0.00 in0.0 mm